createdAt,value
2019-01-23T00:01:25.275Z,35.70
2019-01-23T00:03:52.671Z,35.63
2019-01-23T00:06:20.092Z,36.93
2019-01-23T00:08:47.485Z,39.70
2019-01-23T00:11:14.824Z,43.10
2019-01-23T00:13:42.212Z,39.30
2019-01-23T00:16:09.536Z,30.10
2019-01-23T00:18:36.920Z,38.73
2019-01-23T00:21:04.320Z,29.53
2019-01-23T00:23:31.631Z,39.17
2019-01-23T00:25:59.008Z,48.43
2019-01-23T00:28:26.415Z,36.57
2019-01-23T00:30:53.912Z,58.93
2019-01-23T00:33:21.290Z,44.90
2019-01-23T00:35:48.710Z,49.83
2019-01-23T00:38:16.104Z,54.07
2019-01-23T00:40:43.451Z,30.47
2019-01-23T00:43:10.854Z,46.20
2019-01-23T00:45:38.244Z,34.60
2019-01-23T00:48:05.553Z,51.90
2019-01-23T00:50:32.948Z,43.07
2019-01-23T00:53:00.367Z,43.27
2019-01-23T00:55:27.764Z,44.57
2019-01-23T00:57:55.178Z,41.97
2019-01-23T01:00:24.429Z,40.83
2019-01-23T01:02:53.306Z,31.77
2019-01-23T01:05:21.451Z,32.23
2019-01-23T01:07:50.713Z,39.33
2019-01-23T01:10:19.383Z,23.50
2019-01-23T01:12:48.333Z,26.07
2019-01-23T01:15:17.253Z,30.37
2019-01-23T01:17:44.725Z,17.63
2019-01-23T01:20:13.669Z,19.37
2019-01-23T01:22:41.136Z,32.97
2019-01-23T01:25:09.681Z,40.50
2019-01-23T01:27:37.000Z,38.57
2019-01-23T01:30:05.921Z,37.30
2019-01-23T01:32:33.317Z,46.33
2019-01-23T01:35:00.744Z,40.40
2019-01-23T01:37:28.162Z,39.23
2019-01-23T01:39:55.548Z,36.17
2019-01-23T01:42:22.976Z,44.73
2019-01-23T01:44:50.371Z,44.33
2019-01-23T01:47:17.770Z,42.33
2019-01-23T01:49:45.186Z,40.17
2019-01-23T01:52:12.569Z,34.17
2019-01-23T01:54:39.960Z,35.07
2019-01-23T01:57:07.386Z,34.43
2019-01-23T01:59:34.802Z,33.57
2019-01-23T02:02:02.184Z,37.93
2019-01-23T02:04:29.600Z,39.83
2019-01-23T02:06:57.065Z,39.17
2019-01-23T02:09:24.482Z,26.80
2019-01-23T02:11:51.893Z,41.80
2019-01-23T02:14:19.296Z,38.83
2019-01-23T02:16:46.698Z,35.97
2019-01-23T02:19:14.104Z,45.30
2019-01-23T02:21:41.516Z,36.30
2019-01-23T02:24:08.907Z,32.60
2019-01-23T02:26:36.297Z,41.30
2019-01-23T02:29:09.482Z,37.03
2019-01-23T02:31:34.286Z,41.77
2019-01-23T02:34:01.702Z,32.87
2019-01-23T02:36:29.082Z,24.90
2019-01-23T02:38:56.468Z,38.47
2019-01-23T02:41:23.852Z,37.67
2019-01-23T02:43:51.241Z,35.20
2019-01-23T02:46:18.644Z,37.03
2019-01-23T02:48:46.055Z,34.93
2019-01-23T02:51:13.452Z,36.87
2019-01-23T02:53:40.876Z,45.10
2019-01-23T02:56:08.253Z,39.07
2019-01-23T02:58:35.644Z,44.77
2019-01-23T03:01:02.989Z,42.40
2019-01-23T03:03:30.393Z,36.57
2019-01-23T03:05:57.797Z,29.70
2019-01-23T03:08:25.193Z,35.33
2019-01-23T03:10:52.599Z,37.73
2019-01-23T03:13:20.003Z,33.63
2019-01-23T03:15:47.384Z,33.53
2019-01-23T03:18:14.800Z,39.40
2019-01-23T03:20:42.194Z,40.43
2019-01-23T03:23:09.617Z,40.73
2019-01-23T03:25:37.001Z,41.20
2019-01-23T03:28:04.454Z,36.03
2019-01-23T03:30:31.849Z,36.87
2019-01-23T03:32:59.245Z,36.73
2019-01-23T03:35:26.648Z,32.13
2019-01-23T03:37:54.068Z,35.17
2019-01-23T03:40:22.996Z,38.13
2019-01-23T03:42:50.390Z,37.20
2019-01-23T03:45:19.671Z,31.90
2019-01-23T03:47:48.585Z,33.20
2019-01-23T03:50:16.797Z,33.07
2019-01-23T03:52:45.735Z,36.73
2019-01-23T03:55:14.683Z,37.70
2019-01-23T03:57:42.065Z,31.10
2019-01-23T04:00:10.996Z,34.63
2019-01-23T04:02:38.405Z,35.60
2019-01-23T04:05:07.312Z,34.93
2019-01-23T04:07:34.723Z,34.10
2019-01-23T04:10:02.127Z,36.90
2019-01-23T04:12:29.507Z,37.40
2019-01-23T04:14:56.869Z,38.60
2019-01-23T04:17:24.115Z,37.03
2019-01-23T04:19:51.394Z,36.90
2019-01-23T04:22:18.662Z,35.53
2019-01-23T04:24:45.926Z,37.60
2019-01-23T04:27:13.210Z,37.87
2019-01-23T04:29:40.459Z,35.37
2019-01-23T04:32:07.716Z,39.63
2019-01-23T04:34:34.983Z,41.73
2019-01-23T04:37:02.270Z,34.70
2019-01-23T04:39:29.511Z,39.03
2019-01-23T04:41:56.801Z,38.33
2019-01-23T04:44:24.083Z,40.93
2019-01-23T04:46:51.351Z,39.87
2019-01-23T04:49:18.631Z,41.90
2019-01-23T04:51:47.532Z,37.70
2019-01-23T04:54:16.088Z,41.23
2019-01-23T04:56:43.390Z,39.33
2019-01-23T04:59:10.637Z,41.40
2019-01-23T05:01:37.882Z,40.30
2019-01-23T05:04:05.227Z,35.47
2019-01-23T05:06:32.512Z,39.53
2019-01-23T05:08:59.781Z,39.97
2019-01-23T05:11:27.052Z,46.07
2019-01-23T05:13:54.355Z,40.10
2019-01-23T05:16:21.603Z,42.60
2019-01-23T05:18:48.931Z,41.50
2019-01-23T05:21:16.292Z,34.03
2019-01-23T05:23:45.213Z,37.30
2019-01-23T05:26:12.478Z,39.07
2019-01-23T05:28:39.751Z,35.80
2019-01-23T05:31:07.003Z,36.20
2019-01-23T05:33:34.283Z,37.53
2019-01-23T05:36:01.550Z,36.03
2019-01-23T05:38:28.814Z,34.70
2019-01-23T05:40:56.103Z,34.47
2019-01-23T05:43:23.382Z,32.70
2019-01-23T05:45:50.642Z,34.67
2019-01-23T05:48:17.916Z,33.73
2019-01-23T05:50:45.191Z,34.40
2019-01-23T05:53:12.460Z,36.03
2019-01-23T05:55:39.729Z,35.97
2019-01-23T05:58:07.007Z,34.03
2019-01-23T06:00:34.296Z,32.33
2019-01-23T06:03:01.579Z,32.20
2019-01-23T06:05:28.908Z,31.63
2019-01-23T06:07:56.187Z,29.50
2019-01-23T06:10:23.453Z,33.47
2019-01-23T06:12:50.742Z,25.50
2019-01-23T06:15:18.085Z,31.57
2019-01-23T06:17:45.370Z,28.87
2019-01-23T06:20:16.835Z,31.83
2019-01-23T06:22:44.087Z,31.53
2019-01-23T06:25:11.460Z,26.17
2019-01-23T06:27:38.739Z,26.47
2019-01-23T06:30:10.498Z,25.53
2019-01-23T06:32:36.563Z,27.40
2019-01-23T06:35:05.405Z,26.97
2019-01-23T06:37:32.719Z,24.63
2019-01-23T06:39:59.983Z,23.80
2019-01-23T06:42:27.276Z,26.40
2019-01-23T06:44:54.519Z,24.97
2019-01-23T06:47:21.806Z,24.60
2019-01-23T06:49:49.074Z,22.60
2019-01-23T06:52:16.337Z,24.50
2019-01-23T06:54:43.619Z,23.77
2019-01-23T06:57:10.883Z,22.67
2019-01-23T06:59:38.135Z,28.40
2019-01-23T07:02:05.475Z,25.10
2019-01-23T07:04:32.756Z,24.03
2019-01-23T07:07:00.019Z,26.10
2019-01-23T07:09:27.345Z,24.73
2019-01-23T07:11:54.632Z,23.13
2019-01-23T07:14:21.884Z,25.97
2019-01-23T07:16:49.135Z,25.83
2019-01-23T07:19:16.445Z,25.93
2019-01-23T07:21:43.691Z,24.27
2019-01-23T07:24:10.971Z,27.30
2019-01-23T07:26:38.259Z,25.40
2019-01-23T07:29:05.533Z,26.17
2019-01-23T07:31:32.808Z,25.43
2019-01-23T07:34:00.046Z,26.33
2019-01-23T07:36:27.411Z,25.90
2019-01-23T07:38:54.690Z,26.47
2019-01-23T07:41:21.955Z,28.40
2019-01-23T07:43:49.226Z,28.23
2019-01-23T07:46:16.487Z,30.17
2019-01-23T07:48:43.774Z,29.00
2019-01-23T07:51:13.161Z,29.00
2019-01-23T07:53:40.529Z,26.27
2019-01-23T07:56:07.907Z,27.83
2019-01-23T07:58:35.246Z,28.73
2019-01-23T08:01:02.541Z,30.10
2019-01-23T08:03:29.806Z,27.80
2019-01-23T08:05:57.068Z,27.70
2019-01-23T08:08:24.344Z,31.63
2019-01-23T08:10:51.611Z,28.77
2019-01-23T08:13:19.043Z,26.03
2019-01-23T08:15:46.446Z,26.87
2019-01-23T08:18:13.700Z,24.53
2019-01-23T08:20:40.989Z,26.63
2019-01-23T08:23:08.303Z,25.23
2019-01-23T08:25:35.615Z,23.60
2019-01-23T08:28:02.891Z,23.63
2019-01-23T08:30:30.231Z,23.13
2019-01-23T08:32:57.560Z,25.03
2019-01-23T08:35:26.354Z,24.70
2019-01-23T08:37:55.166Z,25.00
2019-01-23T08:40:22.539Z,25.10
2019-01-23T08:42:50.038Z,27.80
2019-01-23T08:45:18.538Z,24.83
2019-01-23T08:47:47.370Z,26.07
2019-01-23T08:50:16.421Z,25.47
2019-01-23T08:52:43.699Z,24.43
2019-01-23T08:55:10.999Z,21.63
2019-01-23T08:57:38.260Z,24.33
2019-01-23T09:00:09.766Z,26.13
2019-01-23T09:02:37.032Z,23.37
2019-01-23T09:05:05.831Z,21.70
2019-01-23T09:07:33.096Z,22.67
2019-01-23T09:10:00.387Z,25.07
2019-01-23T09:12:27.665Z,24.90
2019-01-23T09:14:54.934Z,25.80
2019-01-23T09:17:22.178Z,26.20
2019-01-23T09:19:49.484Z,22.40
2019-01-23T09:22:16.730Z,24.27
2019-01-23T09:24:43.996Z,25.57
2019-01-23T09:27:11.307Z,23.97
2019-01-23T09:29:38.588Z,22.47
2019-01-23T09:32:07.483Z,23.73
2019-01-23T09:34:39.327Z,22.63
2019-01-23T09:37:08.128Z,23.73
2019-01-23T09:39:36.942Z,24.77
2019-01-23T09:42:20.691Z,23.07
2019-01-23T09:45:06.041Z,22.97
2019-01-23T09:47:34.843Z,22.43
2019-01-23T09:50:21.694Z,22.83
2019-01-23T09:52:53.262Z,21.40
2019-01-23T09:55:20.511Z,21.43
2019-01-23T09:57:49.361Z,19.77
2019-01-23T10:00:19.793Z,19.60
2019-01-23T10:02:47.082Z,19.73
2019-01-23T10:05:16.774Z,18.63
2019-01-23T10:07:43.825Z,20.47
2019-01-23T10:10:15.568Z,20.40
2019-01-23T10:12:42.859Z,19.97
2019-01-23T10:15:11.652Z,20.50
2019-01-23T10:17:39.373Z,20.17
2019-01-23T10:20:06.795Z,18.70
2019-01-23T10:22:34.046Z,18.77
2019-01-23T10:25:01.370Z,18.73
2019-01-23T10:27:28.635Z,20.90
2019-01-23T10:29:55.902Z,21.00
2019-01-23T10:32:23.174Z,21.03
2019-01-23T10:34:50.438Z,23.77
2019-01-23T10:37:19.582Z,21.60
2019-01-23T10:39:46.703Z,21.70
2019-01-23T10:42:13.978Z,22.27
2019-01-23T10:44:41.261Z,22.70
2019-01-23T10:47:08.510Z,23.47
2019-01-23T10:49:35.783Z,21.80
2019-01-23T10:52:03.034Z,22.97
2019-01-23T10:54:30.314Z,21.83
2019-01-23T10:56:57.604Z,22.73
2019-01-23T10:59:24.883Z,22.13
2019-01-23T11:01:52.221Z,25.10
2019-01-23T11:04:19.496Z,25.03
2019-01-23T11:06:52.317Z,23.27
2019-01-23T11:09:21.289Z,22.43
2019-01-23T11:11:50.243Z,23.23
2019-01-23T11:14:17.525Z,23.33
2019-01-23T11:16:44.815Z,23.10
2019-01-23T11:19:13.614Z,21.23
2019-01-23T11:21:40.902Z,23.10
2019-01-23T11:24:08.189Z,23.33
2019-01-23T11:26:35.524Z,20.53
2019-01-23T11:29:02.847Z,22.07
2019-01-23T11:31:30.158Z,23.10
2019-01-23T11:33:57.443Z,22.63
2019-01-23T11:36:24.686Z,23.40
2019-01-23T11:38:52.626Z,23.47
2019-01-23T11:41:20.510Z,22.90
2019-01-23T11:43:47.783Z,23.97
2019-01-23T11:46:15.070Z,25.03
2019-01-23T11:48:42.335Z,26.17
2019-01-23T11:51:09.639Z,25.67
2019-01-23T11:53:36.907Z,25.43
2019-01-23T11:56:04.337Z,26.37
2019-01-23T11:58:31.592Z,25.83
2019-01-23T12:00:58.971Z,25.70
2019-01-23T12:03:26.220Z,24.97
2019-01-23T12:05:53.501Z,24.63
2019-01-23T12:08:20.846Z,24.70
2019-01-23T12:10:48.118Z,26.87
2019-01-23T12:13:15.450Z,25.77
2019-01-23T12:15:42.746Z,26.90
2019-01-23T12:18:10.022Z,26.47
2019-01-23T12:20:37.295Z,24.07
2019-01-23T12:23:06.123Z,25.30
2019-01-23T12:25:33.391Z,24.93
2019-01-23T12:28:00.698Z,24.73
2019-01-23T12:30:32.166Z,26.77
2019-01-23T12:32:59.450Z,26.27
2019-01-23T12:35:26.847Z,27.17
2019-01-23T12:37:54.118Z,24.30
2019-01-23T12:40:21.458Z,26.10
2019-01-23T12:42:48.765Z,26.03
2019-01-23T12:45:17.570Z,29.77
2019-01-23T12:47:44.819Z,31.13
2019-01-23T12:50:13.637Z,29.77
2019-01-23T12:52:40.939Z,30.37
2019-01-23T12:55:11.950Z,29.57
2019-01-23T12:57:39.249Z,27.80
2019-01-23T13:00:08.063Z,29.57
2019-01-23T13:02:35.347Z,24.37
2019-01-23T13:05:02.685Z,26.43
2019-01-23T13:07:33.507Z,25.60
2019-01-23T13:09:58.970Z,27.67
2019-01-23T13:12:26.299Z,26.37
2019-01-23T13:14:53.567Z,26.03
2019-01-23T13:17:20.868Z,27.60
2019-01-23T13:19:48.137Z,27.00
2019-01-23T13:22:15.454Z,24.97
2019-01-23T13:24:42.714Z,26.27
2019-01-23T13:27:10.026Z,26.70
2019-01-23T13:29:37.313Z,27.63
2019-01-23T13:32:04.575Z,26.97
2019-01-23T13:34:31.895Z,29.60
2019-01-23T13:36:59.212Z,31.83
2019-01-23T13:39:26.471Z,28.10
2019-01-23T13:41:53.757Z,28.50
2019-01-23T13:44:21.033Z,32.60
2019-01-23T13:46:48.315Z,30.10
2019-01-23T13:49:15.558Z,29.83
2019-01-23T13:51:43.702Z,29.03
2019-01-23T13:54:10.963Z,28.47
2019-01-23T13:56:38.231Z,28.10
2019-01-23T13:59:05.494Z,29.20
2019-01-23T14:01:32.791Z,30.33
2019-01-23T14:04:00.044Z,28.40
2019-01-23T14:06:27.315Z,28.33
2019-01-23T14:08:54.619Z,26.87
2019-01-23T14:11:21.880Z,30.13
2019-01-23T14:13:49.169Z,30.57
2019-01-23T14:16:16.518Z,30.50
2019-01-23T14:18:43.781Z,30.00
2019-01-23T14:21:11.040Z,28.40
2019-01-23T14:23:38.366Z,32.83
2019-01-23T14:26:05.718Z,31.17
2019-01-23T14:28:32.995Z,29.53
2019-01-23T14:31:00.235Z,31.13
2019-01-23T14:33:27.912Z,29.40
2019-01-23T14:35:55.155Z,31.87
2019-01-23T14:38:22.529Z,28.43
2019-01-23T14:40:49.795Z,27.90
2019-01-23T14:43:17.076Z,29.67
2019-01-23T14:45:44.443Z,31.77
2019-01-23T14:48:11.707Z,29.67
2019-01-23T14:50:38.987Z,29.10
2019-01-23T14:53:06.238Z,30.90
2019-01-23T14:55:33.567Z,30.77
2019-01-23T14:58:00.902Z,30.77
2019-01-23T15:00:29.838Z,29.17
2019-01-23T15:02:57.114Z,27.87
2019-01-23T15:05:25.922Z,30.57
2019-01-23T15:07:53.272Z,29.83
2019-01-23T15:10:22.105Z,30.70
2019-01-23T15:12:49.375Z,32.83
2019-01-23T15:15:18.199Z,28.13
2019-01-23T15:17:45.472Z,30.90
2019-01-23T15:20:14.273Z,30.63
2019-01-23T15:22:41.554Z,30.17
2019-01-23T15:25:09.227Z,32.97
2019-01-23T15:27:36.500Z,33.63
2019-01-23T15:30:05.121Z,31.70
2019-01-23T15:32:32.417Z,32.77
2019-01-23T15:34:59.690Z,33.77
2019-01-23T15:37:26.991Z,32.90
2019-01-23T15:39:54.241Z,29.37
2019-01-23T15:42:21.535Z,30.00
2019-01-23T15:44:49.012Z,29.37
2019-01-23T15:47:16.275Z,28.33
2019-01-23T15:49:43.522Z,30.63
2019-01-23T15:52:10.809Z,29.17
2019-01-23T15:54:38.070Z,29.90
2019-01-23T15:57:05.404Z,29.57
2019-01-23T15:59:32.685Z,29.47
2019-01-23T16:01:59.974Z,27.77
2019-01-23T16:04:27.223Z,26.40
2019-01-23T16:06:54.491Z,27.07
2019-01-23T16:09:21.775Z,27.13
2019-01-23T16:11:49.042Z,26.33
2019-01-23T16:14:16.322Z,26.33
2019-01-23T16:16:43.599Z,23.20
2019-01-23T16:19:10.902Z,21.70
2019-01-23T16:21:38.158Z,18.50
2019-01-23T16:24:06.958Z,17.20
2019-01-23T16:26:34.255Z,16.87
2019-01-23T16:29:01.512Z,18.83
2019-01-23T16:31:28.763Z,19.23
2019-01-23T16:33:56.115Z,20.67
2019-01-23T16:36:25.042Z,18.53
2019-01-23T16:38:52.322Z,19.17
2019-01-23T16:41:19.605Z,16.43
2019-01-23T16:43:46.901Z,17.67
2019-01-23T16:46:14.182Z,17.53
2019-01-23T16:48:41.463Z,16.47
2019-01-23T16:51:08.738Z,15.30
2019-01-23T16:53:53.217Z,16.10
2019-01-23T16:56:23.246Z,16.87
2019-01-23T16:58:58.154Z,18.47
2019-01-23T17:01:25.416Z,17.57
2019-01-23T17:03:52.697Z,17.90
2019-01-23T17:06:21.517Z,18.77
2019-01-23T17:08:48.767Z,17.23
2019-01-23T17:11:16.053Z,19.13
2019-01-23T17:13:43.311Z,18.70
2019-01-23T17:16:10.567Z,19.30
2019-01-23T17:18:37.848Z,18.90
2019-01-23T17:21:06.670Z,20.10
2019-01-23T17:23:33.995Z,21.13
2019-01-23T17:26:01.828Z,20.67
2019-01-23T17:28:29.086Z,20.67
2019-01-23T17:30:56.408Z,21.37
2019-01-23T17:33:23.739Z,21.60
2019-01-23T17:35:51.014Z,22.67
2019-01-23T17:38:18.379Z,23.30
2019-01-23T17:40:45.653Z,23.90
2019-01-23T17:43:13.954Z,22.87
2019-01-23T17:45:41.242Z,22.47
2019-01-23T17:48:10.058Z,22.37
2019-01-23T17:50:37.344Z,22.53
2019-01-23T17:53:06.149Z,23.07
2019-01-23T17:55:37.871Z,23.60
2019-01-23T17:58:07.120Z,22.50
2019-01-23T18:00:37.389Z,20.83
2019-01-23T18:03:07.928Z,17.93
2019-01-23T18:05:35.191Z,15.17
2019-01-23T18:08:02.528Z,18.63
2019-01-23T18:10:29.802Z,20.00
2019-01-23T18:12:57.066Z,18.33
2019-01-23T18:15:25.896Z,18.43
2019-01-23T18:17:53.255Z,16.90
2019-01-23T18:20:21.783Z,16.80
2019-01-23T18:22:49.059Z,16.73
2019-01-23T18:25:17.893Z,20.53
2019-01-23T18:27:46.774Z,15.07
2019-01-23T18:30:15.580Z,18.57
2019-01-23T18:32:42.842Z,21.03
2019-01-23T18:35:11.619Z,22.53
2019-01-23T18:37:40.465Z,26.90
2019-01-23T18:40:27.570Z,25.53
2019-01-23T18:43:02.114Z,26.27
2019-01-23T18:45:30.927Z,23.87
2019-01-23T18:48:16.202Z,25.03
2019-01-23T18:51:03.350Z,21.90
2019-01-23T18:53:30.611Z,22.00
2019-01-23T18:55:57.889Z,22.77
2019-01-23T18:58:25.174Z,22.27
2019-01-23T19:00:52.449Z,23.97
2019-01-23T19:03:19.733Z,24.40
2019-01-23T19:05:48.548Z,21.47
2019-01-23T19:08:15.899Z,22.50
2019-01-23T19:10:43.176Z,24.67
2019-01-23T19:13:10.526Z,24.40
2019-01-23T19:15:37.786Z,22.17
2019-01-23T19:18:05.137Z,25.27
2019-01-23T19:20:32.428Z,21.73
2019-01-23T19:22:59.755Z,23.50
2019-01-23T19:25:27.040Z,22.20
2019-01-23T19:27:54.396Z,20.00
2019-01-23T19:30:23.183Z,18.30
2019-01-23T19:32:50.479Z,16.03
2019-01-23T19:35:17.800Z,17.00
2019-01-23T19:37:45.063Z,17.43
2019-01-23T19:40:13.882Z,18.43
2019-01-23T19:42:41.219Z,19.93
2019-01-23T19:45:10.015Z,21.43
2019-01-23T19:47:37.368Z,21.47
2019-01-23T19:50:07.837Z,23.13
2019-01-23T19:52:35.102Z,22.93
2019-01-23T19:55:02.399Z,23.97
2019-01-23T19:57:29.667Z,22.17
2019-01-23T19:59:56.931Z,22.60
2019-01-23T20:02:24.182Z,23.30
2019-01-23T20:04:51.478Z,24.03
2019-01-23T20:07:18.750Z,24.40
2019-01-23T20:09:46.013Z,24.90
2019-01-23T20:12:15.683Z,24.03
2019-01-23T20:14:42.286Z,26.77
2019-01-23T20:17:09.557Z,24.20
2019-01-23T20:19:36.830Z,27.23
2019-01-23T20:22:05.650Z,25.07
2019-01-23T20:24:32.914Z,26.10
2019-01-23T20:27:00.200Z,24.60
2019-01-23T20:29:27.462Z,25.60
2019-01-23T20:31:55.069Z,26.00
2019-01-23T20:34:22.861Z,26.60
2019-01-23T20:36:50.156Z,28.17
2019-01-23T20:39:17.427Z,25.97
2019-01-23T20:41:44.678Z,28.70
2019-01-23T20:44:11.964Z,27.80
2019-01-23T20:46:40.241Z,29.17
2019-01-23T20:49:07.538Z,27.83
2019-01-23T20:51:34.807Z,28.10
2019-01-23T20:54:02.139Z,30.37
2019-01-23T20:56:29.411Z,29.50
2019-01-23T20:58:56.675Z,30.70
2019-01-23T21:01:23.938Z,29.50
2019-01-23T21:03:51.238Z,26.80
2019-01-23T21:06:18.526Z,27.63
2019-01-23T21:08:45.790Z,29.73
2019-01-23T21:11:13.062Z,30.60
2019-01-23T21:13:40.337Z,27.03
2019-01-23T21:16:07.663Z,31.13
2019-01-23T21:18:34.916Z,28.17
2019-01-23T21:21:02.219Z,30.40
2019-01-23T21:23:29.478Z,29.13
2019-01-23T21:25:56.731Z,27.30
2019-01-23T21:28:24.024Z,30.23
2019-01-23T21:30:51.299Z,31.77
2019-01-23T21:33:18.583Z,31.13
2019-01-23T21:35:45.854Z,31.43
2019-01-23T21:38:13.132Z,31.70
2019-01-23T21:40:43.083Z,29.23
2019-01-23T21:43:10.373Z,30.53
2019-01-23T21:45:37.717Z,28.83
2019-01-23T21:48:07.716Z,29.10
2019-01-23T21:50:34.967Z,28.07
2019-01-23T21:53:02.230Z,30.77
2019-01-23T21:55:29.507Z,31.53
2019-01-23T21:57:56.802Z,31.00
2019-01-23T22:00:28.429Z,32.37
2019-01-23T22:02:57.219Z,32.87
2019-01-23T22:05:24.477Z,31.00
2019-01-23T22:07:51.766Z,30.30
2019-01-23T22:10:19.059Z,30.27
2019-01-23T22:12:46.306Z,28.50
2019-01-23T22:15:20.923Z,28.50
2019-01-23T22:17:48.202Z,29.33
2019-01-23T22:20:17.003Z,28.20
2019-01-23T22:22:45.790Z,33.37
2019-01-23T22:25:14.596Z,31.67
2019-01-23T22:27:41.839Z,32.80
2019-01-23T22:30:13.355Z,34.87
2019-01-23T22:32:40.603Z,32.47
2019-01-23T22:35:09.427Z,30.00
2019-01-23T22:37:36.679Z,33.60
2019-01-23T22:40:05.487Z,32.97
2019-01-23T22:42:32.736Z,33.17
2019-01-23T22:45:00.551Z,33.47
2019-01-23T22:47:27.815Z,32.83
2019-01-23T22:49:55.081Z,32.10
2019-01-23T22:52:22.338Z,30.63
2019-01-23T22:54:49.620Z,32.80
2019-01-23T22:57:16.890Z,32.57
2019-01-23T22:59:44.192Z,32.63
2019-01-23T23:02:11.621Z,30.93
2019-01-23T23:04:38.901Z,33.20
2019-01-23T23:07:06.154Z,33.83
2019-01-23T23:09:33.415Z,32.97
2019-01-23T23:12:00.696Z,32.70
2019-01-23T23:14:27.974Z,33.83
2019-01-23T23:16:55.256Z,32.73
2019-01-23T23:19:22.542Z,33.27
2019-01-23T23:21:49.830Z,35.90
2019-01-23T23:24:17.108Z,33.07
2019-01-23T23:26:44.402Z,34.00
2019-01-23T23:29:11.743Z,35.10
2019-01-23T23:31:39.034Z,35.30
2019-01-23T23:34:10.064Z,34.93
2019-01-23T23:36:35.258Z,34.47
2019-01-23T23:39:04.166Z,31.13
2019-01-23T23:41:31.460Z,33.30
2019-01-23T23:43:58.722Z,29.93
2019-01-23T23:46:26.007Z,33.70
2019-01-23T23:48:53.312Z,32.40
2019-01-23T23:51:20.550Z,30.80
2019-01-23T23:53:47.811Z,31.30
2019-01-23T23:56:15.079Z,31.63
2019-01-23T23:58:42.355Z,28.40
